Jack Brusco — WDC3066 — position and weather

sailwx.info

Track history (hours):
 
Tides and Currents Weather Stations Pressure Air Temp Water Temp Dewpoint Dewpoint Depression Visibility Wind Speed Wind Dir Waves Ship Positions

Jack Brusco

Owner: Brusco Tug & Barge, Inc., Longview, WA. More information available from US FCC via Universal Licensing System and Coast Guard Vessel Documentation Center.

Last reported at 2016-Jun-30 05:33 UTC. Time now 2016-Jul-29 12:09 UTC.
Position N 32°28' W 117°30'.
Warning: this ship's position is 29 days out of date.

Length 36 m; draft 5.2 m.

Type: Tug. MMSI: 3699086.

Date/timePositionNaut miles runAvg speedWind from/ knotsBaromVisibWave heightAir tempDewpointWater temp
2016-Jun-30 05:33N 32°28' W 117°30'9 9.1
2016-Jun-30 04:33N 32°36' W 117°34'9 8.6
2016-Jun-30 03:33N 32°44' W 117°40'9 8.6
2016-Jun-30 02:32N 32°50' W 117°47'9 9.0
2016-Jun-30 01:33N 32°58' W 117°53'9 8.8
2016-Jun-30 00:33N 33°05' W 117°58'9 8.8
2016-Jun-29 23:32N 33°13' W 118°03'9 8.9
2016-Jun-29 22:33N 33°21' W 118°07'9 8.9
2016-Jun-29 21:33N 33°29' W 118°11'9 8.7
2016-Jun-29 20:33N 33°35' W 118°20'8 7.9
2016-Jun-29 19:30N 33°39' W 118°28'9 8.8
2016-Jun-29 18:29N 33°44' W 118°37'8 8.6
2016-Jun-29 17:32N 33°48' W 118°46'18 8.5
2016-Jun-29 15:27N 33°56' W 119°05'49 8.2
2016-Jun-29 09:26N 34°13' W 120°01'82 6.9
2016-Jun-28 21:33N 35°14' W 121°07'50 6.7
2016-Jun-28 14:09N 35°55' W 121°42'5 7.7
2016-Jun-28 13:33N 35°57' W 121°47'8 8.0
2016-Jun-28 12:33N 36°02' W 121°55'8 8.5
2016-Jun-28 11:33N 36°08' W 122°03'9 8.8
2016-Jun-28 10:33N 36°13' W 122°11'8 8.0
2016-Jun-28 09:32N 36°20' W 122°17'8 8.3
2016-Jun-28 08:33N 36°28' W 122°21'8 8.1
2016-Jun-28 07:33N 36°35' W 122°24'9 8.5
2016-Jun-28 06:33N 36°43' W 122°28'18 8.8
2016-Jun-28 04:32N 36°60' W 122°36'8 8.5
2016-Jun-28 03:33N 37°08' W 122°39'9 8.5
2016-Jun-28 02:28N 37°17' W 122°43'8 8.4
2016-Jun-28 01:33N 37°24' W 122°44'8 8.4
2016-Jun-28 00:33N 37°33' W 122°44'9 7.9
2016-Jun-27 23:27N 37°41' W 122°44'8 7.8
2016-Jun-27 22:26N 37°48' W 122°50'7 7.9
2016-Jun-27 21:33N 37°51' W 122°58'8 7.9
2016-Jun-27 20:33N 37°55' W 123°06'8 7.8
2016-Jun-27 19:34N 38°00' W 123°14'8 8.3
2016-Jun-27 18:34N 38°07' W 123°21'8 8.3
2016-Jun-27 17:33N 38°14' W 123°26'9 8.8
2016-Jun-27 16:34N 38°22' W 123°31'9 8.6
2016-Jun-27 15:33N 38°30' W 123°35'9 8.6
2016-Jun-27 14:33N 38°38' W 123°40'8 8.3
2016-Jun-27 13:33N 38°45' W 123°44'412 8.7
2016-Jun-25 14:27N 45°37' W 124°04'8 9.3
2016-Jun-25 13:34N 45°45' W 124°06'9 9.3
2016-Jun-25 12:33N 45°54' W 124°07'9 9.1
2016-Jun-25 11:33N 46°03' W 124°09'8 8.1
2016-Jun-25 10:34N 46°11' W 124°10'7 7.0
2016-Jun-25 09:33N 46°15' W 124°02'6 5.9
2016-Jun-25 08:34N 46°12' W 123°55'7 6.9
2016-Jun-25 07:34N 46°13' W 123°46'8 8.3
2016-Jun-25 06:33N 46°15' W 123°34'7 6.7
2016-Jun-25 05:33N 46°12' W 123°26'8 8.2
2016-Jun-25 04:33N 46°10' W 123°14'9 9.0
2016-Jun-25 03:33N 46°08' W 123°01'9 8.7
2016-Jun-25 02:34N 46°02' W 122°53'9 9.1
2016-Jun-25 01:33N 45°54' W 122°48'1010.1
2016-Jun-25 00:33N 45°44' W 122°46'8 8.1
2016-Jun-24 23:33N 45°35' W 122°46'3 3.2
2016-Jun-24 22:33N 45°33' W 122°43'0 0.0
2016-Jun-24 21:33N 45°33' W 122°43'0 0.0
2016-Jun-24 20:33N 45°33' W 122°43'3 3.1
2016-Jun-24 19:34N 45°35' W 122°46'9 8.6
2016-Jun-24 18:33N 45°44' W 122°46'1110.5
2016-Jun-24 17:33N 45°54' W 122°49'1010.5
2016-Jun-24 16:33N 46°04' W 122°53'1110.8
2016-Jun-24 15:33N 46°11' W 123°06'1010.3
2016-Jun-24 14:33N 46°09' W 123°21'4 3.9
2016-Jun-24 13:34N 46°12' W 123°23'0 0.0
2016-Jun-24 12:30N 46°12' W 123°23'0 0.0
2016-Jun-24 11:33N 46°12' W 123°23'0 0.0
2016-Jun-24 10:07N 46°12' W 123°23'0 0.0
2016-Jun-24 09:29N 46°12' W 123°23'0 0.0
2016-Jun-24 08:33N 46°12' W 123°23'0 0.0
2016-Jun-24 07:34N 46°12' W 123°23'0 0.0
2016-Jun-24 04:33N 46°12' W 123°23'0 0.0
2016-Jun-24 03:34N 46°12' W 123°23'8 8.5
2016-Jun-24 02:34N 46°15' W 123°35'1110.7
2016-Jun-24 01:33N 46°12' W 123°49'1 0.9
2016-Jun-24 00:34N 46°12' W 123°50'0 0.0
2016-Jun-23 23:34N 46°12' W 123°50'0 0.0
2016-Jun-23 22:34N 46°12' W 123°50'0 0.0
2016-Jun-23 21:34N 46°12' W 123°50'1 1.3
2016-Jun-23 20:34N 46°12' W 123°48'1212.0
2016-Jun-23 19:33N 46°16' W 123°32'7 6.8
2016-Jun-23 18:31N 46°12' W 123°23'0 0.0
2016-Jun-23 17:31N 46°12' W 123°23'0 0.0
2016-Jun-23 16:32N 46°12' W 123°23'0 0.0
2016-Jun-23 15:31N 46°12' W 123°23'0 0.0
2016-Jun-23 14:31N 46°12' W 123°23'0 0.0
2016-Jun-23 13:31N 46°12' W 123°23'0 0.0
2016-Jun-23 12:31N 46°12' W 123°23'0 0.0
2016-Jun-23 11:31N 46°12' W 123°23'0 0.0
2016-Jun-23 10:31N 46°12' W 123°23'0 0.0
2016-Jun-23 09:33N 46°12' W 123°23'0 0.0
2016-Jun-23 08:31N 46°12' W 123°23'0 0.0
2016-Jun-23 07:25N 46°12' W 123°23'0 0.0
2016-Jun-23 05:31N 46°12' W 123°23'0 0.0
2016-Jun-23 04:32N 46°12' W 123°23'0 0.0
2016-Jun-23 03:31N 46°12' W 123°23'0 0.0
2016-Jun-23 02:31N 46°12' W 123°23'0 0.0
2016-Jun-23 01:31N 46°12' W 123°23'0 0.0
2016-Jun-23 00:31N 46°12' W 123°23'0 0.0
2016-Jun-22 23:33N 46°12' W 123°23'0 0.0
2016-Jun-22 22:30N 46°12' W 123°23'0 0.0
2016-Jun-22 21:31N 46°12' W 123°23'0 0.0
2016-Jun-22 20:30N 46°12' W 123°23'0 0.0
2016-Jun-22 19:31N 46°12' W 123°23'0 0.0
2016-Jun-22 18:31N 46°12' W 123°23'0 0.0
2016-Jun-22 17:28N 46°12' W 123°23'0 0.0
2016-Jun-22 16:25N 46°12' W 123°23'0 0.0
2016-Jun-22 15:31N 46°12' W 123°23'0 0.0
2016-Jun-22 14:31N 46°12' W 123°23'0 0.0
2016-Jun-22 13:31N 46°12' W 123°23'0 0.0
2016-Jun-22 12:31N 46°12' W 123°23'0 0.0
2016-Jun-22 11:31N 46°12' W 123°23'0 0.0
2016-Jun-22 10:25N 46°12' W 123°23'0 0.0
2016-Jun-22 09:28N 46°12' W 123°23'0 0.0
2016-Jun-22 08:25N 46°12' W 123°23'0 0.0
2016-Jun-22 07:33N 46°12' W 123°23'0 0.0
2016-Jun-22 06:31N 46°12' W 123°23'0 0.0
2016-Jun-22 05:31N 46°12' W 123°23'0 0.0
2016-Jun-22 04:32N 46°12' W 123°23'0 0.0
2016-Jun-22 03:31N 46°12' W 123°23'0 0.0
2016-Jun-22 02:32N 46°12' W 123°23'0 0.0
2016-Jun-22 01:31N 46°12' W 123°23'0 0.0
2016-Jun-22 00:31N 46°12' W 123°23'0 0.0
2016-Jun-21 23:31N 46°12' W 123°23'0 0.0
2016-Jun-21 22:31N 46°12' W 123°23'0 0.0
2016-Jun-21 21:33N 46°12' W 123°23'0 0.0
2016-Jun-21 20:24N 46°12' W 123°23'0 0.0
2016-Jun-21 19:31N 46°12' W 123°23'0 0.0
2016-Jun-21 18:31N 46°12' W 123°23'0 0.0
2016-Jun-21 17:33N 46°12' W 123°23'0 0.0
2016-Jun-21 16:31N 46°12' W 123°23'0 0.0
2016-Jun-21 15:28N 46°12' W 123°23'0 0.0
2016-Jun-21 14:30N 46°12' W 123°23'0 0.0
2016-Jun-21 13:31N 46°12' W 123°23'0 0.0
2016-Jun-21 12:31N 46°12' W 123°23'0 0.0
2016-Jun-21 11:31N 46°12' W 123°23'0 0.0
2016-Jun-21 10:31N 46°12' W 123°23'0 0.0
2016-Jun-21 09:33N 46°12' W 123°23'0 0.0
2016-Jun-21 08:25N 46°12' W 123°23'0 0.0
2016-Jun-21 07:28N 46°12' W 123°23'0 0.0
2016-Jun-21 04:31N 46°12' W 123°23'0 0.0
2016-Jun-21 03:30N 46°12' W 123°23'0 0.0
2016-Jun-21 02:32N 46°12' W 123°23'0 0.0
2016-Jun-21 01:27N 46°12' W 123°23'0 0.0
2016-Jun-21 00:25N 46°12' W 123°23'0 0.0
2016-Jun-20 23:31N 46°12' W 123°23'0 0.0
2016-Jun-20 22:32N 46°12' W 123°23'0 0.0
2016-Jun-20 21:31N 46°12' W 123°23'0 0.0
2016-Jun-20 20:25N 46°12' W 123°23'0 0.0
2016-Jun-20 19:31N 46°12' W 123°23'0 0.0
2016-Jun-20 18:31N 46°12' W 123°23'0 0.0
2016-Jun-20 17:26N 46°12' W 123°23'0 0.0
2016-Jun-20 16:30N 46°12' W 123°23'0 0.0
2016-Jun-20 15:31N 46°12' W 123°23'0 0.0
2016-Jun-20 14:31N 46°12' W 123°23'0 0.0
2016-Jun-20 13:31N 46°12' W 123°23'0 0.0
2016-Jun-20 12:31N 46°12' W 123°23'0 0.0
2016-Jun-20 11:29N 46°12' W 123°23'0 0.0
2016-Jun-20 10:31N 46°12' W 123°23'0 0.0
2016-Jun-20 09:31N 46°12' W 123°23'0 0.0
2016-Jun-20 08:25N 46°12' W 123°23'0 0.0
2016-Jun-20 07:31N 46°12' W 123°23'0 0.0
2016-Jun-20 06:31N 46°12' W 123°23'  
Track history (hours):
 
Tides and Currents Weather Stations Pressure Air Temp Water Temp Dewpoint Dewpoint Depression Visibility Wind Speed Wind Dir Waves Ship Positions

Jack Brusco

Owner: Brusco Tug & Barge, Inc., Longview, WA. More information available from US FCC via Universal Licensing System and Coast Guard Vessel Documentation Center.

Last reported at 2016-Jun-30 05:33 UTC. Time now 2016-Jul-29 12:09 UTC.
Position N 32°28' W 117°30'.
Warning: this ship's position is 29 days out of date.

Length 36 m; draft 5.2 m.

Type: Tug. MMSI: 3699086.

Date/timePositionNaut miles runAvg speedWind from/ knotsBaromVisibWave heightAir tempDewpointWater temp
2016-Jun-30 05:33N 32°28' W 117°30'9 9.1
2016-Jun-30 04:33N 32°36' W 117°34'9 8.6
2016-Jun-30 03:33N 32°44' W 117°40'9 8.6
2016-Jun-30 02:32N 32°50' W 117°47'9 9.0
2016-Jun-30 01:33N 32°58' W 117°53'9 8.8
2016-Jun-30 00:33N 33°05' W 117°58'9 8.8
2016-Jun-29 23:32N 33°13' W 118°03'9 8.9
2016-Jun-29 22:33N 33°21' W 118°07'9 8.9
2016-Jun-29 21:33N 33°29' W 118°11'9 8.7
2016-Jun-29 20:33N 33°35' W 118°20'8 7.9
2016-Jun-29 19:30N 33°39' W 118°28'9 8.8
2016-Jun-29 18:29N 33°44' W 118°37'8 8.6
2016-Jun-29 17:32N 33°48' W 118°46'18 8.5
2016-Jun-29 15:27N 33°56' W 119°05'49 8.2
2016-Jun-29 09:26N 34°13' W 120°01'82 6.9
2016-Jun-28 21:33N 35°14' W 121°07'50 6.7
2016-Jun-28 14:09N 35°55' W 121°42'5 7.7
2016-Jun-28 13:33N 35°57' W 121°47'8 8.0
2016-Jun-28 12:33N 36°02' W 121°55'8 8.5
2016-Jun-28 11:33N 36°08' W 122°03'9 8.8
2016-Jun-28 10:33N 36°13' W 122°11'8 8.0
2016-Jun-28 09:32N 36°20' W 122°17'8 8.3
2016-Jun-28 08:33N 36°28' W 122°21'8 8.1
2016-Jun-28 07:33N 36°35' W 122°24'9 8.5
2016-Jun-28 06:33N 36°43' W 122°28'18 8.8
2016-Jun-28 04:32N 36°60' W 122°36'8 8.5
2016-Jun-28 03:33N 37°08' W 122°39'9 8.5
2016-Jun-28 02:28N 37°17' W 122°43'8 8.4
2016-Jun-28 01:33N 37°24' W 122°44'8 8.4
2016-Jun-28 00:33N 37°33' W 122°44'9 7.9
2016-Jun-27 23:27N 37°41' W 122°44'8 7.8
2016-Jun-27 22:26N 37°48' W 122°50'7 7.9
2016-Jun-27 21:33N 37°51' W 122°58'8 7.9
2016-Jun-27 20:33N 37°55' W 123°06'8 7.8
2016-Jun-27 19:34N 38°00' W 123°14'8 8.3
2016-Jun-27 18:34N 38°07' W 123°21'8 8.3
2016-Jun-27 17:33N 38°14' W 123°26'9 8.8
2016-Jun-27 16:34N 38°22' W 123°31'9 8.6
2016-Jun-27 15:33N 38°30' W 123°35'9 8.6
2016-Jun-27 14:33N 38°38' W 123°40'8 8.3
2016-Jun-27 13:33N 38°45' W 123°44'412 8.7
2016-Jun-25 14:27N 45°37' W 124°04'8 9.3
2016-Jun-25 13:34N 45°45' W 124°06'9 9.3
2016-Jun-25 12:33N 45°54' W 124°07'9 9.1
2016-Jun-25 11:33N 46°03' W 124°09'8 8.1
2016-Jun-25 10:34N 46°11' W 124°10'7 7.0
2016-Jun-25 09:33N 46°15' W 124°02'6 5.9
2016-Jun-25 08:34N 46°12' W 123°55'7 6.9
2016-Jun-25 07:34N 46°13' W 123°46'8 8.3
2016-Jun-25 06:33N 46°15' W 123°34'7 6.7
2016-Jun-25 05:33N 46°12' W 123°26'8 8.2
2016-Jun-25 04:33N 46°10' W 123°14'9 9.0
2016-Jun-25 03:33N 46°08' W 123°01'9 8.7
2016-Jun-25 02:34N 46°02' W 122°53'9 9.1
2016-Jun-25 01:33N 45°54' W 122°48'1010.1
2016-Jun-25 00:33N 45°44' W 122°46'8 8.1
2016-Jun-24 23:33N 45°35' W 122°46'3 3.2
2016-Jun-24 22:33N 45°33' W 122°43'0 0.0
2016-Jun-24 21:33N 45°33' W 122°43'0 0.0
2016-Jun-24 20:33N 45°33' W 122°43'3 3.1
2016-Jun-24 19:34N 45°35' W 122°46'9 8.6
2016-Jun-24 18:33N 45°44' W 122°46'1110.5
2016-Jun-24 17:33N 45°54' W 122°49'1010.5
2016-Jun-24 16:33N 46°04' W 122°53'1110.8
2016-Jun-24 15:33N 46°11' W 123°06'1010.3
2016-Jun-24 14:33N 46°09' W 123°21'4 3.9
2016-Jun-24 13:34N 46°12' W 123°23'0 0.0
2016-Jun-24 12:30N 46°12' W 123°23'0 0.0
2016-Jun-24 11:33N 46°12' W 123°23'0 0.0
2016-Jun-24 10:07N 46°12' W 123°23'0 0.0
2016-Jun-24 09:29N 46°12' W 123°23'0 0.0
2016-Jun-24 08:33N 46°12' W 123°23'0 0.0
2016-Jun-24 07:34N 46°12' W 123°23'0 0.0
2016-Jun-24 04:33N 46°12' W 123°23'0 0.0
2016-Jun-24 03:34N 46°12' W 123°23'8 8.5
2016-Jun-24 02:34N 46°15' W 123°35'1110.7
2016-Jun-24 01:33N 46°12' W 123°49'1 0.9
2016-Jun-24 00:34N 46°12' W 123°50'0 0.0
2016-Jun-23 23:34N 46°12' W 123°50'0 0.0
2016-Jun-23 22:34N 46°12' W 123°50'0 0.0
2016-Jun-23 21:34N 46°12' W 123°50'1 1.3
2016-Jun-23 20:34N 46°12' W 123°48'1212.0
2016-Jun-23 19:33N 46°16' W 123°32'7 6.8
2016-Jun-23 18:31N 46°12' W 123°23'0 0.0
2016-Jun-23 17:31N 46°12' W 123°23'0 0.0
2016-Jun-23 16:32N 46°12' W 123°23'0 0.0
2016-Jun-23 15:31N 46°12' W 123°23'0 0.0
2016-Jun-23 14:31N 46°12' W 123°23'0 0.0
2016-Jun-23 13:31N 46°12' W 123°23'0 0.0
2016-Jun-23 12:31N 46°12' W 123°23'0 0.0
2016-Jun-23 11:31N 46°12' W 123°23'0 0.0
2016-Jun-23 10:31N 46°12' W 123°23'0 0.0
2016-Jun-23 09:33N 46°12' W 123°23'0 0.0
2016-Jun-23 08:31N 46°12' W 123°23'0 0.0
2016-Jun-23 07:25N 46°12' W 123°23'0 0.0
2016-Jun-23 05:31N 46°12' W 123°23'0 0.0
2016-Jun-23 04:32N 46°12' W 123°23'0 0.0
2016-Jun-23 03:31N 46°12' W 123°23'0 0.0
2016-Jun-23 02:31N 46°12' W 123°23'0 0.0
2016-Jun-23 01:31N 46°12' W 123°23'0 0.0
2016-Jun-23 00:31N 46°12' W 123°23'0 0.0
2016-Jun-22 23:33N 46°12' W 123°23'0 0.0
2016-Jun-22 22:30N 46°12' W 123°23'0 0.0
2016-Jun-22 21:31N 46°12' W 123°23'0 0.0
2016-Jun-22 20:30N 46°12' W 123°23'0 0.0
2016-Jun-22 19:31N 46°12' W 123°23'0 0.0
2016-Jun-22 18:31N 46°12' W 123°23'0 0.0
2016-Jun-22 17:28N 46°12' W 123°23'0 0.0
2016-Jun-22 16:25N 46°12' W 123°23'0 0.0
2016-Jun-22 15:31N 46°12' W 123°23'0 0.0
2016-Jun-22 14:31N 46°12' W 123°23'0 0.0
2016-Jun-22 13:31N 46°12' W 123°23'0 0.0
2016-Jun-22 12:31N 46°12' W 123°23'0 0.0
2016-Jun-22 11:31N 46°12' W 123°23'0 0.0
2016-Jun-22 10:25N 46°12' W 123°23'0 0.0
2016-Jun-22 09:28N 46°12' W 123°23'0 0.0
2016-Jun-22 08:25N 46°12' W 123°23'0 0.0
2016-Jun-22 07:33N 46°12' W 123°23'0 0.0
2016-Jun-22 06:31N 46°12' W 123°23'0 0.0
2016-Jun-22 05:31N 46°12' W 123°23'0 0.0
2016-Jun-22 04:32N 46°12' W 123°23'0 0.0
2016-Jun-22 03:31N 46°12' W 123°23'0 0.0
2016-Jun-22 02:32N 46°12' W 123°23'0 0.0
2016-Jun-22 01:31N 46°12' W 123°23'0 0.0
2016-Jun-22 00:31N 46°12' W 123°23'0 0.0
2016-Jun-21 23:31N 46°12' W 123°23'0 0.0
2016-Jun-21 22:31N 46°12' W 123°23'0 0.0
2016-Jun-21 21:33N 46°12' W 123°23'0 0.0
2016-Jun-21 20:24N 46°12' W 123°23'0 0.0
2016-Jun-21 19:31N 46°12' W 123°23'0 0.0
2016-Jun-21 18:31N 46°12' W 123°23'0 0.0
2016-Jun-21 17:33N 46°12' W 123°23'0 0.0
2016-Jun-21 16:31N 46°12' W 123°23'0 0.0
2016-Jun-21 15:28N 46°12' W 123°23'0 0.0
2016-Jun-21 14:30N 46°12' W 123°23'0 0.0
2016-Jun-21 13:31N 46°12' W 123°23'0 0.0
2016-Jun-21 12:31N 46°12' W 123°23'0 0.0
2016-Jun-21 11:31N 46°12' W 123°23'0 0.0
2016-Jun-21 10:31N 46°12' W 123°23'0 0.0
2016-Jun-21 09:33N 46°12' W 123°23'0 0.0
2016-Jun-21 08:25N 46°12' W 123°23'0 0.0
2016-Jun-21 07:28N 46°12' W 123°23'0 0.0
2016-Jun-21 04:31N 46°12' W 123°23'0 0.0
2016-Jun-21 03:30N 46°12' W 123°23'0 0.0
2016-Jun-21 02:32N 46°12' W 123°23'0 0.0
2016-Jun-21 01:27N 46°12' W 123°23'0 0.0
2016-Jun-21 00:25N 46°12' W 123°23'0 0.0
2016-Jun-20 23:31N 46°12' W 123°23'0 0.0
2016-Jun-20 22:32N 46°12' W 123°23'0 0.0
2016-Jun-20 21:31N 46°12' W 123°23'0 0.0
2016-Jun-20 20:25N 46°12' W 123°23'0 0.0
2016-Jun-20 19:31N 46°12' W 123°23'0 0.0
2016-Jun-20 18:31N 46°12' W 123°23'0 0.0
2016-Jun-20 17:26N 46°12' W 123°23'0 0.0
2016-Jun-20 16:30N 46°12' W 123°23'0 0.0
2016-Jun-20 15:31N 46°12' W 123°23'0 0.0
2016-Jun-20 14:31N 46°12' W 123°23'0 0.0
2016-Jun-20 13:31N 46°12' W 123°23'0 0.0
2016-Jun-20 12:31N 46°12' W 123°23'0 0.0
2016-Jun-20 11:29N 46°12' W 123°23'0 0.0
2016-Jun-20 10:31N 46°12' W 123°23'0 0.0
2016-Jun-20 09:31N 46°12' W 123°23'0 0.0
2016-Jun-20 08:25N 46°12' W 123°23'0 0.0
2016-Jun-20 07:31N 46°12' W 123°23'0 0.0
2016-Jun-20 06:31N 46°12' W 123°23'  

Dump ship's entire track history